createdAt,value
2022-08-30T00:03:21.047Z,20.39
2022-08-30T00:08:23.855Z,20.23
2022-08-30T00:13:26.440Z,20.19
2022-08-30T00:18:28.716Z,20.15
2022-08-30T00:23:31.428Z,19.86
2022-08-30T00:28:34.398Z,20.18
2022-08-30T00:33:37.238Z,18.71
2022-08-30T00:38:39.505Z,19.82
2022-08-30T00:43:42.131Z,19.62
2022-08-30T00:48:46.590Z,19.62
2022-08-30T00:53:55.077Z,19.96
2022-08-30T00:58:58.137Z,20.21
2022-08-30T01:04:00.869Z,19.82
2022-08-30T01:09:05.620Z,19.67
2022-08-30T01:14:09.124Z,19.46
2022-08-30T01:19:27.437Z,19.65
2022-08-30T01:24:30.844Z,19.70
2022-08-30T01:29:33.333Z,19.44
2022-08-30T01:34:35.676Z,19.65
2022-08-30T01:39:38.512Z,19.51
2022-08-30T01:44:40.853Z,19.47
2022-08-30T01:49:43.904Z,19.45
2022-08-30T01:54:46.972Z,19.51
2022-08-30T01:59:50.470Z,19.54
2022-08-30T02:04:53.766Z,19.19
2022-08-30T02:09:57.098Z,19.44
2022-08-30T02:14:59.456Z,19.10
2022-08-30T02:20:02.180Z,19.12
2022-08-30T02:25:07.435Z,19.32
2022-08-30T02:30:22.964Z,19.12
2022-08-30T02:35:25.527Z,18.95
2022-08-30T02:40:27.884Z,19.04
2022-08-30T02:45:30.353Z,18.67
2022-08-30T02:50:32.648Z,18.77
2022-08-30T02:55:35.070Z,18.66
2022-08-30T03:00:37.844Z,18.72
2022-08-30T03:05:40.085Z,18.92
2022-08-30T03:10:44.287Z,18.68
2022-08-30T03:15:48.019Z,18.77
2022-08-30T03:20:54.233Z,18.63
2022-08-30T03:25:57.652Z,18.70
2022-08-30T03:31:00.096Z,18.72
2022-08-30T03:36:02.554Z,18.68
2022-08-30T03:41:06.166Z,18.89
2022-08-30T03:46:11.640Z,18.75
2022-08-30T03:51:13.942Z,18.85
2022-08-30T03:56:16.532Z,18.80
2022-08-30T04:01:18.980Z,18.99
2022-08-30T04:06:21.253Z,19.11
2022-08-30T04:11:23.520Z,18.99
2022-08-30T04:16:26.686Z,18.85
2022-08-30T04:21:31.099Z,18.91
2022-08-30T04:26:34.281Z,19.06
2022-08-30T04:31:36.589Z,18.86
2022-08-30T04:36:39.274Z,18.76
2022-08-30T04:41:41.524Z,18.91
2022-08-30T04:46:44.425Z,18.98
2022-08-30T04:51:47.312Z,19.18
2022-08-30T04:56:52.403Z,19.09
2022-08-30T05:01:54.844Z,19.33
2022-08-30T05:06:57.192Z,19.23
2022-08-30T05:11:59.410Z,19.03
2022-08-30T05:17:01.700Z,19.48
2022-08-30T05:22:04.398Z,19.40
2022-08-30T05:27:06.718Z,19.49
2022-08-30T05:32:09.483Z,19.27
2022-08-30T05:37:11.708Z,19.44
2022-08-30T05:42:16.883Z,19.55
2022-08-30T05:47:20.157Z,19.54
2022-08-30T05:52:22.529Z,19.86
2022-08-30T05:57:25.217Z,19.68
2022-08-30T06:02:28.246Z,20.05
2022-08-30T06:07:30.505Z,20.24
2022-08-30T06:12:32.987Z,20.26
2022-08-30T06:17:35.224Z,20.21
2022-08-30T06:22:39.151Z,20.45
2022-08-30T06:27:42.419Z,20.55
2022-08-30T06:32:44.721Z,20.60
2022-08-30T06:37:46.983Z,20.94
2022-08-30T06:42:49.587Z,21.00
2022-08-30T06:47:51.834Z,20.98
2022-08-30T06:52:54.542Z,21.29
2022-08-30T06:58:00.774Z,21.34
2022-08-30T07:03:03.205Z,21.37
2022-08-30T07:08:05.524Z,21.49
2022-08-30T07:13:09.611Z,21.75
2022-08-30T07:18:31.445Z,21.79
2022-08-30T07:23:35.457Z,21.82
2022-08-30T07:28:39.201Z,21.86
2022-08-30T07:33:41.843Z,22.23
2022-08-30T07:38:46.082Z,22.39
2022-08-30T07:43:48.508Z,22.28
2022-08-30T07:48:51.454Z,22.60
2022-08-30T07:53:54.927Z,22.68
2022-08-30T07:58:57.233Z,22.93
2022-08-30T08:03:59.530Z,23.05
2022-08-30T08:09:02.659Z,23.00
2022-08-30T08:14:05.238Z,23.30
2022-08-30T08:19:09.486Z,23.33
2022-08-30T08:24:11.986Z,23.35
2022-08-30T08:29:14.326Z,23.22
2022-08-30T08:34:19.250Z,23.54
2022-08-30T08:39:21.496Z,23.77
2022-08-30T08:50:19.565Z,24.24
2022-08-30T08:55:22.997Z,24.21
2022-08-30T09:00:25.742Z,24.64
2022-08-30T09:05:37.824Z,24.76
2022-08-30T09:10:50.568Z,24.96
2022-08-30T09:15:56.696Z,25.08
2022-08-30T09:21:05.884Z,25.29
2022-08-30T09:26:09.845Z,25.23
2022-08-30T09:31:26.374Z,25.43
2022-08-30T09:36:33.779Z,25.52
2022-08-30T09:41:42.853Z,25.71
2022-08-30T09:46:52.366Z,25.88
2022-08-30T09:52:03.768Z,25.73
2022-08-30T09:57:17.080Z,25.90
2022-08-30T10:02:58.338Z,26.05
2022-08-30T10:08:12.463Z,26.21
2022-08-30T10:13:42.862Z,26.16
2022-08-30T10:19:10.267Z,26.24
2022-08-30T10:24:19.590Z,26.46
2022-08-30T10:29:29.045Z,26.36
2022-08-30T10:34:52.350Z,26.70
2022-08-30T10:39:59.495Z,26.42
2022-08-30T10:45:08.983Z,26.69
2022-08-30T10:50:19.725Z,26.79
2022-08-30T10:55:29.261Z,26.96
2022-08-30T11:00:56.354Z,26.98
2022-08-30T11:06:01.649Z,27.30
2022-08-30T11:11:18.114Z,27.11
2022-08-30T11:16:20.755Z,27.30
2022-08-30T11:21:34.384Z,27.46
2022-08-30T11:26:46.060Z,27.57
2022-08-30T11:31:48.352Z,27.32
2022-08-30T11:36:53.792Z,27.67
2022-08-30T11:42:14.121Z,27.74
2022-08-30T11:47:40.095Z,27.79
2022-08-30T11:53:07.037Z,27.84
2022-08-30T11:58:25.742Z,27.76
2022-08-30T12:03:33.393Z,27.71
2022-08-30T12:08:44.789Z,27.89
2022-08-30T12:13:47.179Z,27.86
2022-08-30T12:19:00.443Z,27.87
2022-08-30T12:24:30.626Z,27.54
2022-08-30T12:29:32.935Z,27.56
2022-08-30T12:34:41.302Z,27.99
2022-08-30T12:39:44.394Z,27.66
2022-08-30T12:44:48.070Z,27.69
2022-08-30T12:49:50.878Z,27.90
2022-08-30T12:54:54.897Z,27.72
2022-08-30T13:00:02.020Z,27.71
2022-08-30T13:05:45.544Z,27.88
2022-08-30T13:10:54.389Z,27.92
2022-08-30T13:15:56.641Z,27.58
2022-08-30T13:21:25.918Z,27.83
2022-08-30T13:26:30.402Z,27.75
2022-08-30T13:31:33.308Z,27.96
2022-08-30T13:36:44.845Z,27.86
2022-08-30T13:41:47.611Z,27.78
2022-08-30T13:46:55.357Z,27.77
2022-08-30T13:52:19.214Z,27.75
2022-08-30T14:02:51.505Z,27.72
2022-08-30T14:07:59.042Z,27.71
2022-08-30T14:13:13.987Z,27.50
2022-08-30T14:18:18.049Z,27.33
2022-08-30T14:23:21.690Z,27.33
2022-08-30T14:28:24.759Z,27.15
2022-08-30T14:33:27.167Z,26.96
2022-08-30T14:38:29.487Z,27.21
2022-08-30T14:43:31.854Z,26.90
2022-08-30T14:48:34.161Z,27.03
2022-08-30T14:53:37.123Z,26.73
2022-08-30T14:58:39.676Z,26.73
2022-08-30T15:03:42.182Z,26.66
2022-08-30T15:08:47.884Z,26.18
2022-08-30T15:13:52.969Z,26.46
2022-08-30T15:18:56.228Z,26.33
2022-08-30T15:24:01.743Z,26.23
2022-08-30T15:29:04.336Z,26.10
2022-08-30T15:34:13.428Z,26.12
2022-08-30T15:39:16.693Z,25.68
2022-08-30T15:44:19.196Z,25.99
2022-08-30T15:49:23.114Z,25.95
2022-08-30T15:54:26.006Z,25.58
2022-08-30T15:59:29.598Z,25.51
2022-08-30T16:04:31.964Z,25.41
2022-08-30T16:09:35.455Z,25.18
2022-08-30T16:14:40.377Z,24.95
2022-08-30T16:19:42.756Z,24.94
2022-08-30T16:24:46.744Z,25.04
2022-08-30T16:29:50.188Z,24.53
2022-08-30T16:34:52.587Z,24.88
2022-08-30T16:39:54.807Z,24.76
2022-08-30T16:44:57.698Z,24.42
2022-08-30T16:50:00.827Z,24.56
2022-08-30T16:55:03.349Z,24.64
2022-08-30T17:00:13.210Z,24.12
2022-08-30T17:05:15.929Z,24.14
2022-08-30T17:10:20.918Z,24.41
2022-08-30T17:15:27.309Z,23.97
2022-08-30T17:20:34.024Z,24.05
2022-08-30T17:25:37.141Z,24.05
2022-08-30T17:30:39.692Z,23.81
2022-08-30T17:35:42.473Z,23.75
2022-08-30T17:40:44.898Z,23.93
2022-08-30T17:45:47.314Z,23.88
2022-08-30T17:50:57.783Z,23.77
2022-08-30T17:56:00.325Z,23.80
2022-08-30T18:01:11.898Z,23.78
2022-08-30T18:06:17.293Z,23.56
2022-08-30T18:11:19.701Z,23.38
2022-08-30T18:16:26.543Z,23.41
2022-08-30T18:21:29.229Z,23.12
2022-08-30T18:26:32.315Z,23.01
2022-08-30T18:31:35.018Z,22.59
2022-08-30T18:36:38.776Z,22.58
2022-08-30T18:41:42.950Z,22.43
2022-08-30T18:46:55.858Z,22.17
2022-08-30T18:52:02.282Z,22.35
2022-08-30T18:57:05.836Z,22.09
2022-08-30T19:02:11.341Z,22.06
2022-08-30T19:07:18.213Z,22.12
2022-08-30T19:12:21.099Z,22.04
2022-08-30T19:17:23.988Z,21.84
2022-08-30T19:22:39.825Z,21.55
2022-08-30T19:27:51.680Z,21.68
2022-08-30T19:32:54.141Z,21.41
2022-08-30T19:37:56.685Z,21.50
2022-08-30T19:42:59.323Z,21.40
2022-08-30T19:48:02.344Z,21.49
2022-08-30T19:53:05.548Z,21.23
2022-08-30T19:58:07.950Z,21.11
2022-08-30T20:03:11.328Z,21.19
2022-08-30T20:08:13.920Z,21.10
2022-08-30T20:13:16.174Z,20.45
2022-08-30T20:18:18.569Z,20.99
2022-08-30T20:23:24.118Z,20.80
2022-08-30T20:28:27.998Z,20.74
2022-08-30T20:33:30.490Z,20.61
2022-08-30T20:38:33.313Z,20.43
2022-08-30T20:43:35.583Z,20.70
2022-08-30T20:48:38.719Z,20.80
2022-08-30T20:53:41.078Z,20.75
2022-08-30T20:58:46.692Z,20.16
2022-08-30T21:03:48.998Z,20.68
2022-08-30T21:08:51.756Z,20.62
2022-08-30T21:13:54.016Z,20.46
2022-08-30T21:18:56.508Z,20.67
2022-08-30T21:24:01.560Z,20.74
2022-08-30T21:29:04.741Z,20.50
2022-08-30T21:34:07.462Z,20.43
2022-08-30T21:39:20.052Z,20.65
2022-08-30T21:44:26.005Z,20.58
2022-08-30T21:49:28.299Z,20.29
2022-08-30T21:54:31.199Z,20.54
2022-08-30T21:59:34.132Z,20.38
2022-08-30T22:04:36.468Z,20.36
2022-08-30T22:09:38.796Z,20.07
2022-08-30T22:14:41.180Z,20.20
2022-08-30T22:19:43.446Z,20.25
2022-08-30T22:24:45.951Z,20.03
2022-08-30T22:29:48.302Z,20.21
2022-08-30T22:34:51.214Z,20.09
2022-08-30T22:39:53.580Z,20.14
2022-08-30T22:44:55.869Z,19.76
2022-08-30T22:49:58.111Z,19.90
2022-08-30T22:55:00.406Z,19.77
2022-08-30T23:00:06.309Z,19.75
2022-08-30T23:05:09.370Z,19.72
2022-08-30T23:10:12.597Z,19.88
2022-08-30T23:15:16.320Z,19.57
2022-08-30T23:20:18.753Z,19.38
2022-08-30T23:25:41.661Z,19.68
2022-08-30T23:31:05.315Z,19.51
2022-08-30T23:36:31.602Z,19.62
2022-08-30T23:41:52.360Z,19.48
2022-08-30T23:47:13.159Z,19.31
2022-08-30T23:52:33.874Z,19.47
2022-08-30T23:57:54.664Z,19.06
